sensor_id;sensor_type;location;lat;lon;timestamp;P1;durP1;ratioP1;P2;durP2;ratioP2
37445;SDS011;23307;51.136;14.942;2022-08-14T00:02:13;10.27;;;9.27;;
37445;SDS011;23307;51.136;14.942;2022-08-14T00:04:39;10.30;;;9.30;;
37445;SDS011;23307;51.136;14.942;2022-08-14T00:07:05;10.45;;;9.50;;
37445;SDS011;23307;51.136;14.942;2022-08-14T00:09:31;9.85;;;8.77;;
37445;SDS011;23307;51.136;14.942;2022-08-14T00:11:57;10.60;;;9.60;;
37445;SDS011;23307;51.136;14.942;2022-08-14T00:14:22;9.68;;;8.77;;
37445;SDS011;23307;51.136;14.942;2022-08-14T00:16:50;10.73;;;9.43;;
37445;SDS011;23307;51.136;14.942;2022-08-14T00:19:16;10.48;;;9.48;;
37445;SDS011;23307;51.136;14.942;2022-08-14T00:21:42;10.38;;;9.43;;
37445;SDS011;23307;51.136;14.942;2022-08-14T00:24:08;10.63;;;9.50;;
37445;SDS011;23307;51.136;14.942;2022-08-14T00:26:33;10.30;;;8.90;;
37445;SDS011;23307;51.136;14.942;2022-08-14T00:28:59;10.60;;;9.38;;
37445;SDS011;23307;51.136;14.942;2022-08-14T00:31:24;9.93;;;8.98;;
37445;SDS011;23307;51.136;14.942;2022-08-14T00:33:51;9.75;;;8.85;;
37445;SDS011;23307;51.136;14.942;2022-08-14T00:36:17;9.90;;;9.00;;
37445;SDS011;23307;51.136;14.942;2022-08-14T00:38:42;10.75;;;9.77;;
37445;SDS011;23307;51.136;14.942;2022-08-14T00:41:08;10.05;;;9.15;;
37445;SDS011;23307;51.136;14.942;2022-08-14T00:43:34;10.73;;;9.73;;
37445;SDS011;23307;51.136;14.942;2022-08-14T00:46:02;10.60;;;9.55;;
37445;SDS011;23307;51.136;14.942;2022-08-14T00:48:29;9.95;;;9.05;;
37445;SDS011;23307;51.136;14.942;2022-08-14T00:50:55;10.25;;;9.25;;
37445;SDS011;23307;51.136;14.942;2022-08-14T00:53:21;10.30;;;9.30;;
37445;SDS011;23307;51.136;14.942;2022-08-14T00:55:47;10.38;;;9.38;;
37445;SDS011;23307;51.136;14.942;2022-08-14T00:58:15;9.85;;;8.85;;
37445;SDS011;23307;51.136;14.942;2022-08-14T01:01:00;10.02;;;9.02;;
37445;SDS011;23307;51.136;14.942;2022-08-14T01:03:30;9.63;;;8.68;;
37445;SDS011;23307;51.136;14.942;2022-08-14T01:05:58;10.40;;;9.40;;
37445;SDS011;23307;51.136;14.942;2022-08-14T01:08:24;10.63;;;9.63;;
37445;SDS011;23307;51.136;14.942;2022-08-14T01:10:52;10.48;;;9.57;;
37445;SDS011;23307;51.136;14.942;2022-08-14T01:13:40;10.35;;;9.35;;
37445;SDS011;23307;51.136;14.942;2022-08-14T01:16:06;10.55;;;9.50;;
37445;SDS011;23307;51.136;14.942;2022-08-14T01:18:34;10.98;;;9.88;;
37445;SDS011;23307;51.136;14.942;2022-08-14T01:21:37;10.88;;;9.90;;
37445;SDS011;23307;51.136;14.942;2022-08-14T01:24:04;11.48;;;10.40;;
37445;SDS011;23307;51.136;14.942;2022-08-14T01:26:32;11.75;;;10.20;;
37445;SDS011;23307;51.136;14.942;2022-08-14T01:28:59;11.82;;;10.73;;
37445;SDS011;23307;51.136;14.942;2022-08-14T01:31:27;12.50;;;11.40;;
37445;SDS011;23307;51.136;14.942;2022-08-14T01:33:55;13.02;;;11.27;;
37445;SDS011;23307;51.136;14.942;2022-08-14T01:36:23;13.68;;;12.48;;
37445;SDS011;23307;51.136;14.942;2022-08-14T01:38:50;14.48;;;13.10;;
37445;SDS011;23307;51.136;14.942;2022-08-14T01:41:20;14.45;;;13.15;;
37445;SDS011;23307;51.136;14.942;2022-08-14T01:43:56;14.48;;;13.07;;
37445;SDS011;23307;51.136;14.942;2022-08-14T01:46:26;15.32;;;13.93;;
37445;SDS011;23307;51.136;14.942;2022-08-14T01:48:53;14.88;;;13.50;;
37445;SDS011;23307;51.136;14.942;2022-08-14T01:51:20;15.35;;;13.82;;
37445;SDS011;23307;51.136;14.942;2022-08-14T01:53:57;14.73;;;13.25;;
37445;SDS011;23307;51.136;14.942;2022-08-14T01:56:30;14.35;;;12.98;;
37445;SDS011;23307;51.136;14.942;2022-08-14T01:59:00;16.85;;;15.10;;
37445;SDS011;23307;51.136;14.942;2022-08-14T02:01:26;16.23;;;14.68;;
37445;SDS011;23307;51.136;14.942;2022-08-14T02:03:51;17.42;;;15.63;;
37445;SDS011;23307;51.136;14.942;2022-08-14T02:06:17;16.52;;;14.93;;
37445;SDS011;23307;51.136;14.942;2022-08-14T02:08:44;18.02;;;16.27;;
37445;SDS011;23307;51.136;14.942;2022-08-14T02:11:10;17.33;;;15.52;;
37445;SDS011;23307;51.136;14.942;2022-08-14T02:13:47;17.75;;;16.13;;
37445;SDS011;23307;51.136;14.942;2022-08-14T02:16:16;17.02;;;15.48;;
37445;SDS011;23307;51.136;14.942;2022-08-14T02:18:43;18.10;;;16.45;;
37445;SDS011;23307;51.136;14.942;2022-08-14T02:21:10;17.65;;;15.85;;
37445;SDS011;23307;51.136;14.942;2022-08-14T02:23:36;16.75;;;15.15;;
37445;SDS011;23307;51.136;14.942;2022-08-14T02:26:12;17.55;;;15.85;;
37445;SDS011;23307;51.136;14.942;2022-08-14T02:28:39;18.30;;;16.50;;
37445;SDS011;23307;51.136;14.942;2022-08-14T02:31:05;18.23;;;16.52;;
37445;SDS011;23307;51.136;14.942;2022-08-14T02:33:32;16.77;;;15.27;;
37445;SDS011;23307;51.136;14.942;2022-08-14T02:35:59;17.52;;;15.73;;
37445;SDS011;23307;51.136;14.942;2022-08-14T02:38:25;18.05;;;16.23;;
37445;SDS011;23307;51.136;14.942;2022-08-14T02:40:51;17.60;;;16.00;;
37445;SDS011;23307;51.136;14.942;2022-08-14T02:43:16;17.63;;;15.93;;
37445;SDS011;23307;51.136;14.942;2022-08-14T02:45:43;17.05;;;15.25;;
37445;SDS011;23307;51.136;14.942;2022-08-14T02:48:09;18.05;;;16.10;;
37445;SDS011;23307;51.136;14.942;2022-08-14T02:50:36;16.95;;;15.32;;
37445;SDS011;23307;51.136;14.942;2022-08-14T02:53:02;18.88;;;17.05;;
37445;SDS011;23307;51.136;14.942;2022-08-14T02:55:29;16.67;;;15.07;;
37445;SDS011;23307;51.136;14.942;2022-08-14T02:57:54;18.42;;;16.73;;
37445;SDS011;23307;51.136;14.942;2022-08-14T03:00:21;18.10;;;16.42;;
37445;SDS011;23307;51.136;14.942;2022-08-14T03:02:47;18.00;;;16.23;;
37445;SDS011;23307;51.136;14.942;2022-08-14T03:05:14;17.65;;;15.75;;
37445;SDS011;23307;51.136;14.942;2022-08-14T03:07:41;18.35;;;16.65;;
37445;SDS011;23307;51.136;14.942;2022-08-14T03:10:08;17.80;;;16.13;;
37445;SDS011;23307;51.136;14.942;2022-08-14T03:12:35;17.17;;;15.48;;
37445;SDS011;23307;51.136;14.942;2022-08-14T03:15:02;18.15;;;16.27;;
37445;SDS011;23307;51.136;14.942;2022-08-14T03:17:38;19.50;;;17.48;;
37445;SDS011;23307;51.136;14.942;2022-08-14T03:20:04;20.30;;;18.30;;
37445;SDS011;23307;51.136;14.942;2022-08-14T03:22:31;20.63;;;18.60;;
37445;SDS011;23307;51.136;14.942;2022-08-14T03:24:57;20.55;;;18.55;;
37445;SDS011;23307;51.136;14.942;2022-08-14T03:27:24;19.63;;;17.92;;
37445;SDS011;23307;51.136;14.942;2022-08-14T03:29:50;20.10;;;18.02;;
37445;SDS011;23307;51.136;14.942;2022-08-14T03:32:16;20.23;;;18.42;;
37445;SDS011;23307;51.136;14.942;2022-08-14T03:34:41;19.90;;;18.00;;
37445;SDS011;23307;51.136;14.942;2022-08-14T03:37:07;18.38;;;16.65;;
37445;SDS011;23307;51.136;14.942;2022-08-14T03:39:34;17.70;;;16.08;;
37445;SDS011;23307;51.136;14.942;2022-08-14T03:42:00;17.50;;;15.80;;
37445;SDS011;23307;51.136;14.942;2022-08-14T03:44:25;17.65;;;16.02;;
37445;SDS011;23307;51.136;14.942;2022-08-14T03:46:50;17.15;;;15.50;;
37445;SDS011;23307;51.136;14.942;2022-08-14T03:49:16;17.35;;;15.75;;
37445;SDS011;23307;51.136;14.942;2022-08-14T03:51:48;17.88;;;15.93;;
37445;SDS011;23307;51.136;14.942;2022-08-14T03:54:13;17.25;;;15.52;;
37445;SDS011;23307;51.136;14.942;2022-08-14T03:56:39;18.55;;;16.75;;
37445;SDS011;23307;51.136;14.942;2022-08-14T03:59:08;17.05;;;15.20;;
37445;SDS011;23307;51.136;14.942;2022-08-14T04:01:35;17.30;;;15.60;;
37445;SDS011;23307;51.136;14.942;2022-08-14T04:04:03;18.48;;;16.58;;
37445;SDS011;23307;51.136;14.942;2022-08-14T04:06:30;16.67;;;15.10;;
37445;SDS011;23307;51.136;14.942;2022-08-14T04:08:57;17.30;;;15.68;;
37445;SDS011;23307;51.136;14.942;2022-08-14T04:11:23;17.10;;;15.45;;
37445;SDS011;23307;51.136;14.942;2022-08-14T04:13:49;16.48;;;14.80;;
37445;SDS011;23307;51.136;14.942;2022-08-14T04:16:15;16.48;;;14.93;;
37445;SDS011;23307;51.136;14.942;2022-08-14T04:18:46;16.88;;;15.18;;
37445;SDS011;23307;51.136;14.942;2022-08-14T04:21:13;17.38;;;15.60;;
37445;SDS011;23307;51.136;14.942;2022-08-14T04:23:40;17.05;;;15.25;;
37445;SDS011;23307;51.136;14.942;2022-08-14T04:26:07;17.05;;;15.45;;
37445;SDS011;23307;51.136;14.942;2022-08-14T04:28:36;16.15;;;14.52;;
37445;SDS011;23307;51.136;14.942;2022-08-14T04:31:03;14.60;;;13.20;;
37445;SDS011;23307;51.136;14.942;2022-08-14T04:33:29;15.05;;;13.65;;
37445;SDS011;23307;51.136;14.942;2022-08-14T04:35:55;14.70;;;13.40;;
37445;SDS011;23307;51.136;14.942;2022-08-14T04:38:20;16.30;;;14.63;;
37445;SDS011;23307;51.136;14.942;2022-08-14T04:41:05;17.08;;;15.35;;
37445;SDS011;23307;51.136;14.942;2022-08-14T04:43:49;15.57;;;14.18;;
37445;SDS011;23307;51.136;14.942;2022-08-14T04:46:16;16.58;;;14.88;;
37445;SDS011;23307;51.136;14.942;2022-08-14T04:48:43;16.65;;;15.05;;
37445;SDS011;23307;51.136;14.942;2022-08-14T04:51:13;16.65;;;14.93;;
37445;SDS011;23307;51.136;14.942;2022-08-14T04:53:41;16.30;;;14.82;;
37445;SDS011;23307;51.136;14.942;2022-08-14T04:56:09;16.42;;;14.82;;
37445;SDS011;23307;51.136;14.942;2022-08-14T04:58:36;15.07;;;13.77;;
37445;SDS011;23307;51.136;14.942;2022-08-14T05:01:03;14.77;;;13.38;;
37445;SDS011;23307;51.136;14.942;2022-08-14T05:03:31;15.60;;;14.07;;
37445;SDS011;23307;51.136;14.942;2022-08-14T05:06:00;17.65;;;15.80;;
37445;SDS011;23307;51.136;14.942;2022-08-14T05:08:28;17.58;;;15.88;;
37445;SDS011;23307;51.136;14.942;2022-08-14T05:10:55;17.95;;;16.15;;
37445;SDS011;23307;51.136;14.942;2022-08-14T05:13:22;18.40;;;16.73;;
37445;SDS011;23307;51.136;14.942;2022-08-14T05:15:49;17.67;;;16.08;;
37445;SDS011;23307;51.136;14.942;2022-08-14T05:18:17;19.38;;;17.52;;
37445;SDS011;23307;51.136;14.942;2022-08-14T05:20:48;21.95;;;19.98;;
37445;SDS011;23307;51.136;14.942;2022-08-14T05:23:17;20.67;;;18.77;;
37445;SDS011;23307;51.136;14.942;2022-08-14T05:25:45;22.08;;;19.95;;
37445;SDS011;23307;51.136;14.942;2022-08-14T05:28:14;26.13;;;23.65;;
37445;SDS011;23307;51.136;14.942;2022-08-14T05:30:44;26.13;;;23.63;;
37445;SDS011;23307;51.136;14.942;2022-08-14T05:33:12;25.45;;;23.15;;
37445;SDS011;23307;51.136;14.942;2022-08-14T05:35:40;24.52;;;22.30;;
37445;SDS011;23307;51.136;14.942;2022-08-14T05:38:06;23.73;;;21.58;;
37445;SDS011;23307;51.136;14.942;2022-08-14T05:40:33;23.92;;;21.73;;
37445;SDS011;23307;51.136;14.942;2022-08-14T05:42:59;24.70;;;22.38;;
37445;SDS011;23307;51.136;14.942;2022-08-14T05:45:25;23.05;;;20.98;;
37445;SDS011;23307;51.136;14.942;2022-08-14T05:47:50;25.15;;;22.77;;
37445;SDS011;23307;51.136;14.942;2022-08-14T05:50:16;26.58;;;24.17;;
37445;SDS011;23307;51.136;14.942;2022-08-14T05:52:42;25.52;;;22.92;;
37445;SDS011;23307;51.136;14.942;2022-08-14T05:55:08;26.35;;;23.63;;
37445;SDS011;23307;51.136;14.942;2022-08-14T05:57:44;25.55;;;23.08;;
37445;SDS011;23307;51.136;14.942;2022-08-14T06:00:12;24.38;;;22.17;;
37445;SDS011;23307;51.136;14.942;2022-08-14T06:02:38;23.90;;;21.60;;
37445;SDS011;23307;51.136;14.942;2022-08-14T06:05:03;23.33;;;21.02;;
37445;SDS011;23307;51.136;14.942;2022-08-14T06:07:29;24.05;;;21.75;;
37445;SDS011;23307;51.136;14.942;2022-08-14T06:09:54;24.15;;;21.75;;
37445;SDS011;23307;51.136;14.942;2022-08-14T06:12:20;24.40;;;22.00;;
37445;SDS011;23307;51.136;14.942;2022-08-14T06:14:45;23.42;;;21.17;;
37445;SDS011;23307;51.136;14.942;2022-08-14T06:17:11;21.70;;;19.65;;
37445;SDS011;23307;51.136;14.942;2022-08-14T06:19:36;21.67;;;19.58;;
37445;SDS011;23307;51.136;14.942;2022-08-14T06:22:02;23.30;;;20.90;;
37445;SDS011;23307;51.136;14.942;2022-08-14T06:24:28;21.83;;;19.73;;
37445;SDS011;23307;51.136;14.942;2022-08-14T06:26:53;21.75;;;19.65;;
37445;SDS011;23307;51.136;14.942;2022-08-14T06:29:19;21.65;;;19.48;;
37445;SDS011;23307;51.136;14.942;2022-08-14T06:31:44;22.73;;;20.63;;
37445;SDS011;23307;51.136;14.942;2022-08-14T06:34:11;22.50;;;20.40;;
37445;SDS011;23307;51.136;14.942;2022-08-14T06:36:37;23.42;;;21.23;;
37445;SDS011;23307;51.136;14.942;2022-08-14T06:39:02;22.65;;;20.38;;
37445;SDS011;23307;51.136;14.942;2022-08-14T06:41:28;21.55;;;19.40;;
37445;SDS011;23307;51.136;14.942;2022-08-14T06:43:53;20.67;;;18.83;;
37445;SDS011;23307;51.136;14.942;2022-08-14T06:46:19;20.73;;;18.77;;
37445;SDS011;23307;51.136;14.942;2022-08-14T06:48:44;20.50;;;18.58;;
37445;SDS011;23307;51.136;14.942;2022-08-14T06:51:13;18.17;;;16.48;;
37445;SDS011;23307;51.136;14.942;2022-08-14T06:53:38;19.55;;;17.75;;
37445;SDS011;23307;51.136;14.942;2022-08-14T06:56:04;18.77;;;16.95;;
37445;SDS011;23307;51.136;14.942;2022-08-14T06:58:29;18.20;;;16.50;;
37445;SDS011;23307;51.136;14.942;2022-08-14T07:00:55;18.92;;;17.02;;
37445;SDS011;23307;51.136;14.942;2022-08-14T07:03:39;17.23;;;15.70;;
37445;SDS011;23307;51.136;14.942;2022-08-14T07:06:23;17.63;;;16.13;;
37445;SDS011;23307;51.136;14.942;2022-08-14T07:08:49;16.10;;;14.45;;
37445;SDS011;23307;51.136;14.942;2022-08-14T07:11:16;16.90;;;15.20;;
37445;SDS011;23307;51.136;14.942;2022-08-14T07:13:42;14.95;;;13.65;;
37445;SDS011;23307;51.136;14.942;2022-08-14T07:16:08;16.08;;;14.57;;
37445;SDS011;23307;51.136;14.942;2022-08-14T07:18:36;12.70;;;11.50;;
37445;SDS011;23307;51.136;14.942;2022-08-14T07:21:02;12.27;;;11.07;;
37445;SDS011;23307;51.136;14.942;2022-08-14T07:23:29;12.40;;;11.10;;
37445;SDS011;23307;51.136;14.942;2022-08-14T07:25:55;11.65;;;10.63;;
37445;SDS011;23307;51.136;14.942;2022-08-14T07:28:23;12.30;;;11.20;;
37445;SDS011;23307;51.136;14.942;2022-08-14T07:30:53;12.13;;;11.13;;
37445;SDS011;23307;51.136;14.942;2022-08-14T07:33:21;10.73;;;9.80;;
37445;SDS011;23307;51.136;14.942;2022-08-14T07:35:48;10.00;;;9.10;;
37445;SDS011;23307;51.136;14.942;2022-08-14T07:38:18;9.77;;;8.57;;
37445;SDS011;23307;51.136;14.942;2022-08-14T07:40:46;10.52;;;9.45;;
37445;SDS011;23307;51.136;14.942;2022-08-14T07:43:12;9.95;;;9.00;;
37445;SDS011;23307;51.136;14.942;2022-08-14T07:45:38;9.93;;;8.95;;
37445;SDS011;23307;51.136;14.942;2022-08-14T07:48:04;9.27;;;8.38;;
37445;SDS011;23307;51.136;14.942;2022-08-14T07:50:30;9.15;;;8.32;;
37445;SDS011;23307;51.136;14.942;2022-08-14T07:52:57;9.05;;;8.25;;
37445;SDS011;23307;51.136;14.942;2022-08-14T07:55:23;9.35;;;8.55;;
37445;SDS011;23307;51.136;14.942;2022-08-14T07:57:49;9.45;;;8.57;;
37445;SDS011;23307;51.136;14.942;2022-08-14T08:00:16;9.10;;;8.25;;
37445;SDS011;23307;51.136;14.942;2022-08-14T08:02:44;9.32;;;8.52;;
37445;SDS011;23307;51.136;14.942;2022-08-14T08:05:12;8.95;;;8.25;;
37445;SDS011;23307;51.136;14.942;2022-08-14T08:07:38;9.60;;;8.63;;
37445;SDS011;23307;51.136;14.942;2022-08-14T08:15:32;9.85;;;9.05;;
37445;SDS011;23307;51.136;14.942;2022-08-14T08:18:00;9.75;;;8.82;;
37445;SDS011;23307;51.136;14.942;2022-08-14T08:20:34;9.73;;;8.65;;
37445;SDS011;23307;51.136;14.942;2022-08-14T08:23:02;9.80;;;8.73;;
37445;SDS011;23307;51.136;14.942;2022-08-14T08:25:30;9.40;;;8.57;;
37445;SDS011;23307;51.136;14.942;2022-08-14T08:28:02;9.63;;;8.80;;
37445;SDS011;23307;51.136;14.942;2022-08-14T08:30:31;8.98;;;8.27;;
37445;SDS011;23307;51.136;14.942;2022-08-14T08:32:58;9.23;;;8.43;;
37445;SDS011;23307;51.136;14.942;2022-08-14T08:35:26;8.50;;;7.80;;
37445;SDS011;23307;51.136;14.942;2022-08-14T08:37:54;8.48;;;7.75;;
37445;SDS011;23307;51.136;14.942;2022-08-14T08:40:27;8.10;;;7.45;;
37445;SDS011;23307;51.136;14.942;2022-08-14T08:42:54;8.25;;;7.55;;
37445;SDS011;23307;51.136;14.942;2022-08-14T08:45:20;8.63;;;7.93;;
37445;SDS011;23307;51.136;14.942;2022-08-14T08:47:46;9.25;;;7.60;;
37445;SDS011;23307;51.136;14.942;2022-08-14T08:50:20;8.00;;;7.40;;
37445;SDS011;23307;51.136;14.942;2022-08-14T08:52:54;10.32;;;7.10;;
37445;SDS011;23307;51.136;14.942;2022-08-14T08:55:26;8.70;;;6.85;;
37445;SDS011;23307;51.136;14.942;2022-08-14T08:57:54;7.05;;;6.38;;
37445;SDS011;23307;51.136;14.942;2022-08-14T09:00:20;6.97;;;6.38;;
37445;SDS011;23307;51.136;14.942;2022-08-14T09:02:53;6.60;;;6.03;;
37445;SDS011;23307;51.136;14.942;2022-08-14T09:05:21;7.63;;;6.32;;
37445;SDS011;23307;51.136;14.942;2022-08-14T09:07:47;8.18;;;6.03;;
37445;SDS011;23307;51.136;14.942;2022-08-14T09:10:12;6.63;;;5.95;;
37445;SDS011;23307;51.136;14.942;2022-08-14T09:12:38;6.85;;;6.20;;
37445;SDS011;23307;51.136;14.942;2022-08-14T09:15:05;6.60;;;5.93;;
37445;SDS011;23307;51.136;14.942;2022-08-14T09:17:34;6.70;;;5.93;;
37445;SDS011;23307;51.136;14.942;2022-08-14T09:19:59;6.80;;;6.07;;
37445;SDS011;23307;51.136;14.942;2022-08-14T09:22:25;6.57;;;5.97;;
37445;SDS011;23307;51.136;14.942;2022-08-14T09:24:52;6.82;;;6.13;;
37445;SDS011;23307;51.136;14.942;2022-08-14T09:27:18;6.82;;;6.22;;
37445;SDS011;23307;51.136;14.942;2022-08-14T09:29:44;6.60;;;6.10;;
37445;SDS011;23307;51.136;14.942;2022-08-14T09:32:11;6.30;;;5.75;;
37445;SDS011;23307;51.136;14.942;2022-08-14T09:34:55;7.13;;;6.32;;
37445;SDS011;23307;51.136;14.942;2022-08-14T09:45:35;7.40;;;6.22;;
37445;SDS011;23307;51.136;14.942;2022-08-14T09:48:15;6.53;;;5.95;;
37445;SDS011;23307;51.136;14.942;2022-08-14T09:50:49;6.85;;;6.20;;
37445;SDS011;23307;51.136;14.942;2022-08-14T09:53:17;7.05;;;6.28;;
37445;SDS011;23307;51.136;14.942;2022-08-14T09:56:02;7.57;;;6.40;;
37445;SDS011;23307;51.136;14.942;2022-08-14T09:58:37;6.25;;;5.65;;
37445;SDS011;23307;51.136;14.942;2022-08-14T10:01:08;6.90;;;6.30;;
37445;SDS011;23307;51.136;14.942;2022-08-14T10:03:36;6.82;;;6.32;;
37445;SDS011;23307;51.136;14.942;2022-08-14T10:06:12;7.40;;;6.57;;
37445;SDS011;23307;51.136;14.942;2022-08-14T10:08:43;6.70;;;5.90;;
37445;SDS011;23307;51.136;14.942;2022-08-14T10:11:18;7.25;;;6.18;;
37445;SDS011;23307;51.136;14.942;2022-08-14T10:13:44;7.22;;;6.63;;
37445;SDS011;23307;51.136;14.942;2022-08-14T10:16:11;6.60;;;5.90;;
37445;SDS011;23307;51.136;14.942;2022-08-14T10:18:38;6.50;;;5.90;;
37445;SDS011;23307;51.136;14.942;2022-08-14T10:21:06;6.90;;;6.22;;
37445;SDS011;23307;51.136;14.942;2022-08-14T10:23:40;7.43;;;6.72;;
37445;SDS011;23307;51.136;14.942;2022-08-14T10:26:17;7.10;;;6.50;;
37445;SDS011;23307;51.136;14.942;2022-08-14T10:28:45;6.82;;;6.30;;
37445;SDS011;23307;51.136;14.942;2022-08-14T10:31:17;8.23;;;6.53;;
37445;SDS011;23307;51.136;14.942;2022-08-14T10:33:57;6.82;;;6.32;;
37445;SDS011;23307;51.136;14.942;2022-08-14T10:39:05;8.13;;;5.60;;
37445;SDS011;23307;51.136;14.942;2022-08-14T10:41:33;5.38;;;4.97;;
37445;SDS011;23307;51.136;14.942;2022-08-14T10:44:04;5.65;;;4.93;;
37445;SDS011;23307;51.136;14.942;2022-08-14T10:46:40;5.13;;;4.40;;
37445;SDS011;23307;51.136;14.942;2022-08-14T10:49:18;5.05;;;4.55;;
37445;SDS011;23307;51.136;14.942;2022-08-14T10:54:27;7.15;;;4.85;;
37445;SDS011;23307;51.136;14.942;2022-08-14T10:56:55;5.20;;;4.80;;
37445;SDS011;23307;51.136;14.942;2022-08-14T11:02:25;6.72;;;4.05;;
37445;SDS011;23307;51.136;14.942;2022-08-14T11:04:59;4.53;;;4.13;;
37445;SDS011;23307;51.136;14.942;2022-08-14T11:07:29;4.00;;;3.60;;
37445;SDS011;23307;51.136;14.942;2022-08-14T11:09:56;4.80;;;4.05;;
37445;SDS011;23307;51.136;14.942;2022-08-14T11:12:38;5.97;;;4.28;;
37445;SDS011;23307;51.136;14.942;2022-08-14T11:15:09;4.57;;;4.13;;
37445;SDS011;23307;51.136;14.942;2022-08-14T11:17:34;5.68;;;3.92;;
37445;SDS011;23307;51.136;14.942;2022-08-14T11:20:01;6.20;;;4.30;;
37445;SDS011;23307;51.136;14.942;2022-08-14T11:22:28;4.13;;;3.80;;
37445;SDS011;23307;51.136;14.942;2022-08-14T11:24:57;5.20;;;4.38;;
37445;SDS011;23307;51.136;14.942;2022-08-14T11:27:26;4.50;;;4.07;;
37445;SDS011;23307;51.136;14.942;2022-08-14T11:29:55;4.53;;;3.70;;
37445;SDS011;23307;51.136;14.942;2022-08-14T11:32:24;6.03;;;3.58;;
37445;SDS011;23307;51.136;14.942;2022-08-14T11:34:50;4.07;;;3.70;;
37445;SDS011;23307;51.136;14.942;2022-08-14T11:37:17;6.13;;;4.25;;
37445;SDS011;23307;51.136;14.942;2022-08-14T11:39:42;5.72;;;3.97;;
37445;SDS011;23307;51.136;14.942;2022-08-14T11:42:17;4.15;;;3.80;;
37445;SDS011;23307;51.136;14.942;2022-08-14T11:44:44;8.05;;;4.25;;
37445;SDS011;23307;51.136;14.942;2022-08-14T11:47:10;5.60;;;4.22;;
37445;SDS011;23307;51.136;14.942;2022-08-14T11:49:45;4.68;;;4.05;;
37445;SDS011;23307;51.136;14.942;2022-08-14T11:52:14;4.90;;;4.50;;
37445;SDS011;23307;51.136;14.942;2022-08-14T11:54:42;4.65;;;3.80;;
37445;SDS011;23307;51.136;14.942;2022-08-14T11:57:14;6.40;;;4.20;;
37445;SDS011;23307;51.136;14.942;2022-08-14T11:59:40;5.85;;;4.00;;
37445;SDS011;23307;51.136;14.942;2022-08-14T12:02:13;5.25;;;4.28;;
37445;SDS011;23307;51.136;14.942;2022-08-14T12:04:50;6.47;;;3.90;;
37445;SDS011;23307;51.136;14.942;2022-08-14T12:07:17;4.65;;;4.25;;
37445;SDS011;23307;51.136;14.942;2022-08-14T12:09:44;4.15;;;3.85;;
37445;SDS011;23307;51.136;14.942;2022-08-14T12:12:18;4.60;;;4.20;;
37445;SDS011;23307;51.136;14.942;2022-08-14T12:14:46;4.15;;;3.85;;
37445;SDS011;23307;51.136;14.942;2022-08-14T12:17:13;4.53;;;4.10;;
37445;SDS011;23307;51.136;14.942;2022-08-14T12:19:46;4.57;;;4.00;;
37445;SDS011;23307;51.136;14.942;2022-08-14T12:22:13;4.15;;;3.75;;
37445;SDS011;23307;51.136;14.942;2022-08-14T12:24:41;4.97;;;4.10;;
37445;SDS011;23307;51.136;14.942;2022-08-14T12:27:08;4.25;;;3.85;;
37445;SDS011;23307;51.136;14.942;2022-08-14T12:29:34;4.90;;;4.40;;
37445;SDS011;23307;51.136;14.942;2022-08-14T12:32:00;5.22;;;4.07;;
37445;SDS011;23307;51.136;14.942;2022-08-14T12:34:31;5.68;;;4.30;;
37445;SDS011;23307;51.136;14.942;2022-08-14T12:37:02;5.40;;;4.25;;
37445;SDS011;23307;51.136;14.942;2022-08-14T12:39:30;5.85;;;4.40;;
37445;SDS011;23307;51.136;14.942;2022-08-14T12:41:57;5.13;;;3.97;;
37445;SDS011;23307;51.136;14.942;2022-08-14T12:44:31;5.53;;;4.38;;
37445;SDS011;23307;51.136;14.942;2022-08-14T12:47:10;5.55;;;4.47;;
37445;SDS011;23307;51.136;14.942;2022-08-14T12:49:46;5.35;;;4.32;;
37445;SDS011;23307;51.136;14.942;2022-08-14T12:57:38;7.20;;;4.30;;
37445;SDS011;23307;51.136;14.942;2022-08-14T13:00:22;5.05;;;4.30;;
37445;SDS011;23307;51.136;14.942;2022-08-14T13:02:49;8.25;;;4.68;;
37445;SDS011;23307;51.136;14.942;2022-08-14T13:05:17;6.63;;;4.80;;
37445;SDS011;23307;51.136;14.942;2022-08-14T13:07:49;5.00;;;4.22;;
37445;SDS011;23307;51.136;14.942;2022-08-14T13:10:19;4.88;;;4.32;;
37445;SDS011;23307;51.136;14.942;2022-08-14T13:12:46;4.30;;;3.90;;
37445;SDS011;23307;51.136;14.942;2022-08-14T13:15:14;4.65;;;4.10;;
37445;SDS011;23307;51.136;14.942;2022-08-14T13:17:47;4.80;;;4.40;;
37445;SDS011;23307;51.136;14.942;2022-08-14T13:20:15;4.65;;;4.03;;
37445;SDS011;23307;51.136;14.942;2022-08-14T13:22:41;6.10;;;4.30;;
37445;SDS011;23307;51.136;14.942;2022-08-14T13:25:09;6.90;;;4.45;;
37445;SDS011;23307;51.136;14.942;2022-08-14T13:27:36;4.90;;;4.10;;
37445;SDS011;23307;51.136;14.942;2022-08-14T13:30:06;5.55;;;4.00;;
37445;SDS011;23307;51.136;14.942;2022-08-14T13:32:33;5.07;;;4.30;;
37445;SDS011;23307;51.136;14.942;2022-08-14T13:35:03;6.78;;;4.88;;
37445;SDS011;23307;51.136;14.942;2022-08-14T13:37:29;5.47;;;4.35;;
37445;SDS011;23307;51.136;14.942;2022-08-14T13:39:55;6.22;;;4.30;;
37445;SDS011;23307;51.136;14.942;2022-08-14T13:42:21;6.43;;;4.32;;
37445;SDS011;23307;51.136;14.942;2022-08-14T13:44:50;6.75;;;4.97;;
37445;SDS011;23307;51.136;14.942;2022-08-14T13:47:18;8.13;;;5.10;;
37445;SDS011;23307;51.136;14.942;2022-08-14T13:49:48;6.95;;;4.65;;
37445;SDS011;23307;51.136;14.942;2022-08-14T13:52:16;6.38;;;4.55;;
37445;SDS011;23307;51.136;14.942;2022-08-14T13:54:47;5.88;;;4.50;;
37445;SDS011;23307;51.136;14.942;2022-08-14T13:57:14;4.63;;;4.13;;
37445;SDS011;23307;51.136;14.942;2022-08-14T13:59:44;4.78;;;4.28;;
37445;SDS011;23307;51.136;14.942;2022-08-14T14:02:15;5.95;;;4.43;;
37445;SDS011;23307;51.136;14.942;2022-08-14T14:04:43;5.40;;;4.40;;
37445;SDS011;23307;51.136;14.942;2022-08-14T14:07:11;6.18;;;4.47;;
37445;SDS011;23307;51.136;14.942;2022-08-14T14:09:40;5.15;;;4.70;;
37445;SDS011;23307;51.136;14.942;2022-08-14T14:12:09;5.45;;;4.50;;
37445;SDS011;23307;51.136;14.942;2022-08-14T14:14:35;5.28;;;4.68;;
37445;SDS011;23307;51.136;14.942;2022-08-14T14:17:05;6.47;;;4.70;;
37445;SDS011;23307;51.136;14.942;2022-08-14T14:19:32;7.60;;;4.38;;
37445;SDS011;23307;51.136;14.942;2022-08-14T14:22:02;6.75;;;4.53;;
37445;SDS011;23307;51.136;14.942;2022-08-14T14:24:32;5.60;;;5.10;;
37445;SDS011;23307;51.136;14.942;2022-08-14T14:26:59;6.80;;;4.80;;
37445;SDS011;23307;51.136;14.942;2022-08-14T14:29:28;5.45;;;4.93;;
37445;SDS011;23307;51.136;14.942;2022-08-14T14:31:55;4.97;;;4.53;;
37445;SDS011;23307;51.136;14.942;2022-08-14T14:34:23;7.75;;;4.72;;
37445;SDS011;23307;51.136;14.942;2022-08-14T14:36:49;5.10;;;4.70;;
37445;SDS011;23307;51.136;14.942;2022-08-14T14:39:15;5.20;;;4.63;;
37445;SDS011;23307;51.136;14.942;2022-08-14T14:41:44;5.20;;;4.50;;
37445;SDS011;23307;51.136;14.942;2022-08-14T14:44:16;5.38;;;4.63;;
37445;SDS011;23307;51.136;14.942;2022-08-14T14:46:47;5.40;;;4.90;;
37445;SDS011;23307;51.136;14.942;2022-08-14T14:49:14;5.85;;;4.53;;
37445;SDS011;23307;51.136;14.942;2022-08-14T14:51:45;5.18;;;4.60;;
37445;SDS011;23307;51.136;14.942;2022-08-14T14:54:11;7.10;;;4.30;;
37445;SDS011;23307;51.136;14.942;2022-08-14T14:56:38;5.93;;;4.50;;
37445;SDS011;23307;51.136;14.942;2022-08-14T14:59:05;6.13;;;4.60;;